createdAt,value
2023-02-23T00:02:07.253Z,97289.25
2023-02-23T00:06:11.496Z,97294.75
2023-02-23T00:10:19.859Z,97288.25
2023-02-23T00:14:25.204Z,97294.09
2023-02-23T00:18:30.735Z,97301.53
2023-02-23T00:22:34.214Z,97296.16
2023-02-23T00:26:43.134Z,97296.78
2023-02-23T00:30:47.142Z,97296.59
2023-02-23T00:34:50.649Z,97304.06
2023-02-23T00:38:55.449Z,97299.47
2023-02-23T00:43:00.770Z,97283.19
2023-02-23T00:47:04.517Z,97295.84
2023-02-23T00:51:07.883Z,97293.72
2023-02-23T00:55:13.168Z,97298.53
2023-02-23T00:59:18.808Z,97297.09
2023-02-23T01:03:22.247Z,97299.34
2023-02-23T01:07:27.448Z,97303.19
2023-02-23T01:11:31.574Z,97303.16
2023-02-23T01:15:36.861Z,97305.06
2023-02-23T01:19:40.262Z,97302.06
2023-02-23T01:23:43.785Z,97300.66
2023-02-23T01:27:47.475Z,97295.88
2023-02-23T01:31:52.738Z,97296.13
2023-02-23T01:36:00.379Z,97293.63
2023-02-23T01:40:11.360Z,97293.72
2023-02-23T01:44:52.243Z,97288.31
2023-02-23T01:48:58.000Z,97294.94
2023-02-23T01:53:01.529Z,97287.75
2023-02-23T01:57:06.860Z,97287.34
2023-02-23T02:01:10.828Z,97284.72
2023-02-23T02:05:16.877Z,97288.25
2023-02-23T02:09:21.276Z,97286.13
2023-02-23T02:13:29.770Z,97301.94
2023-02-23T02:17:41.206Z,97286.31
2023-02-23T02:22:26.164Z,97290.84
2023-02-23T02:26:38.960Z,97293.03
2023-02-23T02:30:49.240Z,97290.75
2023-02-23T02:35:38.674Z,97288.03
2023-02-23T02:39:54.558Z,97289.06
2023-02-23T02:44:03.841Z,97289.94
2023-02-23T02:48:17.077Z,97297.59
2023-02-23T02:52:27.277Z,97295.28
2023-02-23T02:56:34.099Z,97290.25
2023-02-23T03:00:37.349Z,97297.09
2023-02-23T03:04:59.959Z,97299.53
2023-02-23T03:09:30.619Z,97304.72
2023-02-23T03:14:04.449Z,97300.63
2023-02-23T03:18:38.424Z,97299.41
2023-02-23T03:23:06.515Z,97306.66
2023-02-23T03:27:34.166Z,97305.59
2023-02-23T03:32:03.243Z,97302.63
2023-02-23T03:36:29.847Z,97304.00
2023-02-23T03:40:54.664Z,97306.19
2023-02-23T03:45:16.605Z,97312.09
2023-02-23T03:49:41.178Z,97316.03
2023-02-23T03:54:07.847Z,97314.97
2023-02-23T03:58:34.872Z,97313.09
2023-02-23T04:02:58.645Z,97320.44
2023-02-23T04:07:25.964Z,97319.34
2023-02-23T04:11:50.766Z,97313.50
2023-02-23T04:15:55.764Z,97322.34
2023-02-23T04:19:59.592Z,97321.00
2023-02-23T04:24:03.952Z,97323.84
2023-02-23T04:28:07.168Z,97316.38
2023-02-23T04:32:15.906Z,97327.00
2023-02-23T04:36:19.147Z,97325.34
2023-02-23T04:40:24.430Z,97324.28
2023-02-23T04:44:27.643Z,97321.53
2023-02-23T04:48:30.716Z,97326.44
2023-02-23T04:52:35.386Z,97318.69
2023-02-23T04:56:40.504Z,97321.41
2023-02-23T05:00:43.877Z,97318.28
2023-02-23T05:04:47.121Z,97320.47
2023-02-23T05:08:50.446Z,97315.88
2023-02-23T05:12:55.192Z,97320.75
2023-02-23T05:16:58.736Z,97324.97
2023-02-23T05:21:06.522Z,97321.31
2023-02-23T05:25:12.113Z,97328.63
2023-02-23T05:29:16.724Z,97321.84
2023-02-23T05:33:20.284Z,97325.41
2023-02-23T05:37:23.400Z,97320.22
2023-02-23T05:41:26.662Z,97318.44
2023-02-23T05:45:31.252Z,97320.88
2023-02-23T05:49:34.453Z,97319.13
2023-02-23T05:53:37.457Z,97326.88
2023-02-23T05:57:41.711Z,97327.00
2023-02-23T06:01:46.286Z,97339.09
2023-02-23T06:05:52.549Z,97329.88
2023-02-23T06:09:55.546Z,97336.25
2023-02-23T06:14:00.834Z,97347.69
2023-02-23T06:18:05.722Z,97344.41
2023-02-23T06:22:09.020Z,97354.06
2023-02-23T06:26:12.056Z,97348.63
2023-02-23T06:30:16.202Z,97353.38
2023-02-23T06:34:21.298Z,97356.91
2023-02-23T06:38:24.387Z,97361.97
2023-02-23T06:42:28.152Z,97371.06
2023-02-23T06:46:31.120Z,97364.00
2023-02-23T06:50:35.681Z,97372.00
2023-02-23T06:54:40.345Z,97373.50
2023-02-23T06:58:43.769Z,97383.41
2023-02-23T07:02:46.914Z,97376.16
2023-02-23T07:06:52.592Z,97379.25
2023-02-23T07:10:56.984Z,97388.31
2023-02-23T07:15:00.091Z,97384.97
2023-02-23T07:19:03.937Z,97388.63
2023-02-23T07:23:08.653Z,97394.53
2023-02-23T07:27:11.936Z,97396.19
2023-02-23T07:31:15.196Z,97394.94
2023-02-23T07:35:18.361Z,97390.97
2023-02-23T07:39:22.986Z,97389.69
2023-02-23T07:43:26.123Z,97388.25
2023-02-23T07:47:31.235Z,97397.31
2023-02-23T07:51:34.673Z,97389.16
2023-02-23T07:55:40.694Z,97394.66
2023-02-23T07:59:55.766Z,97400.13
2023-02-23T08:03:59.393Z,97402.00
2023-02-23T08:08:02.891Z,97405.78
2023-02-23T08:12:08.108Z,97403.56
2023-02-23T08:16:13.191Z,97400.81
2023-02-23T08:20:16.502Z,97400.06
2023-02-23T08:24:19.886Z,97402.31
2023-02-23T08:28:25.240Z,97405.78
2023-02-23T08:32:30.122Z,97417.47
2023-02-23T08:36:33.212Z,97406.47
2023-02-23T08:40:36.383Z,97408.19
2023-02-23T08:44:40.659Z,97402.56
2023-02-23T08:48:43.900Z,97405.72
2023-02-23T08:52:47.048Z,97406.78
2023-02-23T08:56:51.219Z,97406.63
2023-02-23T09:00:56.153Z,97412.00
2023-02-23T09:05:00.059Z,97404.81
2023-02-23T09:09:03.426Z,97403.50
2023-02-23T09:13:07.080Z,97410.59
2023-02-23T09:17:12.036Z,97399.75
2023-02-23T09:21:25.594Z,97406.28
2023-02-23T09:25:29.527Z,97406.38
2023-02-23T09:29:32.767Z,97408.72
2023-02-23T09:33:37.750Z,97404.94
2023-02-23T09:37:40.803Z,97414.28
2023-02-23T09:42:08.913Z,97410.94
2023-02-23T09:46:21.477Z,97415.19
2023-02-23T09:50:30.476Z,97414.44
2023-02-23T09:54:35.789Z,97417.28
2023-02-23T09:58:39.752Z,97409.81
2023-02-23T10:03:11.080Z,97410.44
2023-02-23T10:07:22.341Z,97405.38
2023-02-23T10:11:31.042Z,97401.53
2023-02-23T10:15:42.119Z,97412.22
2023-02-23T10:19:52.155Z,97406.03
2023-02-23T10:24:02.533Z,97407.72
2023-02-23T10:28:05.991Z,97399.47
2023-02-23T10:32:20.744Z,97403.38
2023-02-23T10:36:35.881Z,97407.81
2023-02-23T10:40:40.665Z,97394.81
2023-02-23T10:44:46.181Z,97395.25
2023-02-23T10:48:52.144Z,97394.06
2023-02-23T10:53:00.024Z,97388.41
2023-02-23T10:57:06.804Z,97386.81
2023-02-23T11:01:11.574Z,97383.84
2023-02-23T11:05:32.083Z,97376.00
2023-02-23T11:09:51.061Z,97371.19
2023-02-23T11:13:56.426Z,97367.13
2023-02-23T11:18:01.475Z,97364.28
2023-02-23T11:22:06.979Z,97363.44
2023-02-23T11:26:26.013Z,97353.66
2023-02-23T11:30:38.352Z,97356.31
2023-02-23T11:34:43.963Z,97352.50
2023-02-23T11:38:47.978Z,97349.34
2023-02-23T11:42:56.847Z,97342.91
2023-02-23T11:47:01.707Z,97345.41
2023-02-23T11:51:05.580Z,97334.72
2023-02-23T11:55:13.886Z,97329.25
2023-02-23T11:59:20.824Z,97327.16
2023-02-23T12:03:27.489Z,97321.41
2023-02-23T12:07:39.186Z,97324.41
2023-02-23T12:11:48.769Z,97322.31
2023-02-23T12:15:58.834Z,97309.09
2023-02-23T12:20:11.766Z,97306.22
2023-02-23T12:24:21.071Z,97301.69
2023-02-23T12:28:33.319Z,97299.06
2023-02-23T12:32:48.030Z,97298.50
2023-02-23T12:36:59.728Z,97295.09
2023-02-23T12:41:07.827Z,97294.53
2023-02-23T12:45:20.706Z,97296.16
2023-02-23T12:49:29.151Z,97293.53
2023-02-23T12:53:40.746Z,97290.13
2023-02-23T12:57:50.042Z,97284.53
2023-02-23T13:01:59.238Z,97285.84
2023-02-23T13:06:09.211Z,97285.03
2023-02-23T13:10:27.456Z,97286.13
2023-02-23T13:14:43.594Z,97279.25
2023-02-23T13:18:51.416Z,97282.72
2023-02-23T13:23:02.087Z,97287.84
2023-02-23T13:27:17.588Z,97291.88
2023-02-23T13:31:26.223Z,97288.06
2023-02-23T13:35:35.869Z,97287.91
2023-02-23T13:40:00.644Z,97281.47
2023-02-23T13:44:17.102Z,97279.28
2023-02-23T13:48:54.425Z,97284.59
2023-02-23T13:53:05.081Z,97280.34
2023-02-23T13:57:17.144Z,97267.63
2023-02-23T14:01:23.886Z,97274.72
2023-02-23T14:05:30.820Z,97268.03
2023-02-23T14:14:52.041Z,97273.66
2023-02-23T14:19:08.259Z,97265.16
2023-02-23T14:23:36.926Z,97265.56
2023-02-23T14:27:45.404Z,97267.63
2023-02-23T14:32:02.394Z,97263.19
2023-02-23T14:36:35.387Z,97261.63
2023-02-23T14:40:44.556Z,97261.22
2023-02-23T14:45:01.702Z,97252.31
2023-02-23T14:49:15.880Z,97254.72
2023-02-23T14:53:26.256Z,97254.53
2023-02-23T14:57:34.875Z,97262.41
2023-02-23T15:05:52.144Z,97266.44
2023-02-23T15:10:00.291Z,97258.94
2023-02-23T15:14:06.353Z,97255.28
2023-02-23T15:18:22.766Z,97257.47
2023-02-23T15:22:29.541Z,97255.38
2023-02-23T15:26:36.401Z,97254.53
2023-02-23T15:30:46.807Z,97261.97
2023-02-23T15:34:50.480Z,97259.09
2023-02-23T15:38:56.628Z,97259.66
2023-02-23T15:43:01.738Z,97252.31
2023-02-23T15:47:08.215Z,97246.19
2023-02-23T15:51:23.980Z,97256.22
2023-02-23T15:55:30.079Z,97250.88
2023-02-23T15:59:37.507Z,97250.38
2023-02-23T16:04:00.054Z,97255.94
2023-02-23T16:08:06.714Z,97242.13
2023-02-23T16:12:14.841Z,97241.88
2023-02-23T16:16:25.620Z,97238.78
2023-02-23T16:20:35.856Z,97231.44
2023-02-23T16:24:39.888Z,97222.88
2023-02-23T16:28:44.972Z,97223.97
2023-02-23T16:32:51.200Z,97231.97
2023-02-23T16:36:59.157Z,97228.19
2023-02-23T16:41:04.092Z,97229.47
2023-02-23T16:45:08.501Z,97231.72
2023-02-23T16:49:13.711Z,97238.09
2023-02-23T16:53:17.330Z,97238.53
2023-02-23T16:57:25.101Z,97238.00
2023-02-23T17:01:28.423Z,97247.13
2023-02-23T17:05:33.617Z,97246.59
2023-02-23T17:09:37.125Z,97249.44
2023-02-23T17:13:40.101Z,97242.72
2023-02-23T17:17:43.673Z,97252.22
2023-02-23T17:21:48.855Z,97247.75
2023-02-23T17:25:52.750Z,97251.25
2023-02-23T17:30:00.849Z,97256.34
2023-02-23T17:34:04.133Z,97257.44
2023-02-23T17:38:09.457Z,97260.09
2023-02-23T17:42:13.031Z,97261.13
2023-02-23T17:46:16.064Z,97249.66
2023-02-23T17:50:22.194Z,97249.66
2023-02-23T17:54:27.431Z,97259.00
2023-02-23T17:58:30.699Z,97260.34
2023-02-23T18:02:34.565Z,97262.28
2023-02-23T18:06:37.466Z,97259.03
2023-02-23T18:10:42.348Z,97251.63
2023-02-23T18:14:45.649Z,97251.97
2023-02-23T18:18:50.485Z,97262.63
2023-02-23T18:22:53.389Z,97254.06
2023-02-23T18:27:00.889Z,97256.69
2023-02-23T18:31:04.327Z,97248.75
2023-02-23T18:35:07.906Z,97262.59
2023-02-23T18:39:12.785Z,97261.13
2023-02-23T18:43:17.049Z,97254.97
2023-02-23T18:47:20.771Z,97258.88
2023-02-23T18:51:24.179Z,97265.06
2023-02-23T18:55:27.318Z,97257.25
2023-02-23T18:59:31.915Z,97257.25
2023-02-23T19:03:35.139Z,97255.81
2023-02-23T19:07:38.188Z,97256.78
2023-02-23T19:11:42.754Z,97250.66
2023-02-23T19:15:48.549Z,97254.69
2023-02-23T19:19:52.171Z,97251.94
2023-02-23T19:23:58.065Z,97259.31
2023-02-23T19:28:01.114Z,97250.88
2023-02-23T19:32:06.393Z,97255.28
2023-02-23T19:36:12.591Z,97265.41
2023-02-23T19:40:19.937Z,97257.91
2023-02-23T19:44:24.206Z,97263.47
2023-02-23T19:48:30.642Z,97263.63
2023-02-23T19:52:35.360Z,97269.66
2023-02-23T19:56:39.469Z,97272.06
2023-02-23T20:00:42.389Z,97261.66
2023-02-23T20:04:49.702Z,97261.31
2023-02-23T20:08:55.122Z,97255.94
2023-02-23T20:12:58.433Z,97260.63
2023-02-23T20:17:01.731Z,97259.47
2023-02-23T20:21:12.484Z,97256.38
2023-02-23T20:25:16.523Z,97258.81
2023-02-23T20:29:20.364Z,97264.50
2023-02-23T20:33:23.410Z,97254.09
2023-02-23T20:37:28.392Z,97252.94
2023-02-23T20:41:32.143Z,97254.53
2023-02-23T20:45:35.608Z,97238.13
2023-02-23T20:49:41.352Z,97242.84
2023-02-23T20:53:47.578Z,97250.94
2023-02-23T20:57:52.141Z,97228.94
2023-02-23T21:01:56.014Z,97235.63
2023-02-23T21:05:59.225Z,97231.69
2023-02-23T21:10:04.314Z,97232.13
2023-02-23T21:14:08.862Z,97231.00
2023-02-23T21:18:12.848Z,97216.97
2023-02-23T21:22:17.298Z,97221.84
2023-02-23T21:26:23.910Z,97221.50
2023-02-23T21:30:29.884Z,97221.16
2023-02-23T21:34:32.829Z,97215.56
2023-02-23T21:38:36.392Z,97217.22
2023-02-23T21:42:44.751Z,97212.78
2023-02-23T21:46:47.856Z,97210.34
2023-02-23T21:50:51.184Z,97210.72
2023-02-23T21:54:54.116Z,97209.44
2023-02-23T21:58:59.259Z,97209.59
2023-02-23T22:03:03.279Z,97203.94
2023-02-23T22:07:07.046Z,97204.44
2023-02-23T22:11:11.994Z,97203.97
2023-02-23T22:15:19.338Z,97211.16
2023-02-23T22:19:22.503Z,97209.91
2023-02-23T22:23:26.080Z,97207.63
2023-02-23T22:27:29.180Z,97202.75
2023-02-23T22:31:34.266Z,97195.28
2023-02-23T22:35:40.978Z,97197.25
2023-02-23T22:39:44.588Z,97194.00
2023-02-23T22:43:49.423Z,97191.56
2023-02-23T22:47:55.542Z,97191.22
2023-02-23T22:51:58.483Z,97185.03
2023-02-23T22:56:01.554Z,97178.66
2023-02-23T23:00:12.823Z,97182.25
2023-02-23T23:04:17.659Z,97187.75
2023-02-23T23:08:20.644Z,97180.94
2023-02-23T23:12:24.245Z,97171.31
2023-02-23T23:16:32.210Z,97175.38
2023-02-23T23:20:36.774Z,97168.03
2023-02-23T23:24:46.592Z,97169.47
2023-02-23T23:28:53.344Z,97164.53
2023-02-23T23:32:56.469Z,97161.59
2023-02-23T23:37:03.187Z,97157.03
2023-02-23T23:41:14.353Z,97154.25
2023-02-23T23:45:24.285Z,97155.25
2023-02-23T23:49:28.316Z,97153.59
2023-02-23T23:53:35.688Z,97145.00
2023-02-23T23:57:39.411Z,97143.53
